sensor_id;sensor_type;location;lat;lon;timestamp;P1;durP1;ratioP1;P2;durP2;ratioP2
62933;SDS011;49038;47.600;19.242;2022-12-22T00:01:37;31.63;;;16.20;;
62933;SDS011;49038;47.600;19.242;2022-12-22T00:04:58;22.20;;;13.77;;
62933;SDS011;49038;47.600;19.242;2022-12-22T00:08:19;18.20;;;11.50;;
62933;SDS011;49038;47.600;19.242;2022-12-22T00:11:40;22.53;;;14.03;;
62933;SDS011;49038;47.600;19.242;2022-12-22T00:15:01;14.67;;;12.60;;
62933;SDS011;49038;47.600;19.242;2022-12-22T00:18:23;23.12;;;13.25;;
62933;SDS011;49038;47.600;19.242;2022-12-22T00:21:44;18.33;;;12.13;;
62933;SDS011;49038;47.600;19.242;2022-12-22T00:25:05;19.77;;;13.33;;
62933;SDS011;49038;47.600;19.242;2022-12-22T00:28:26;26.02;;;12.15;;
62933;SDS011;49038;47.600;19.242;2022-12-22T00:31:47;23.30;;;14.13;;
62933;SDS011;49038;47.600;19.242;2022-12-22T00:35:12;22.62;;;13.77;;
62933;SDS011;49038;47.600;19.242;2022-12-22T00:38:34;20.33;;;10.43;;
62933;SDS011;49038;47.600;19.242;2022-12-22T00:41:54;15.67;;;11.00;;
62933;SDS011;49038;47.600;19.242;2022-12-22T00:45:15;11.10;;;9.67;;
62933;SDS011;49038;47.600;19.242;2022-12-22T00:48:36;21.50;;;11.15;;
62933;SDS011;49038;47.600;19.242;2022-12-22T00:51:59;17.20;;;10.70;;
62933;SDS011;49038;47.600;19.242;2022-12-22T00:55:21;16.83;;;10.18;;
62933;SDS011;49038;47.600;19.242;2022-12-22T00:58:45;22.52;;;13.55;;
62933;SDS011;49038;47.600;19.242;2022-12-22T01:02:06;20.30;;;12.63;;
62933;SDS011;49038;47.600;19.242;2022-12-22T01:05:27;27.37;;;14.98;;
62933;SDS011;49038;47.600;19.242;2022-12-22T01:08:48;25.00;;;15.27;;
62933;SDS011;49038;47.600;19.242;2022-12-22T01:12:18;26.20;;;13.27;;
62933;SDS011;49038;47.600;19.242;2022-12-22T01:15:40;21.67;;;13.02;;
62933;SDS011;49038;47.600;19.242;2022-12-22T01:19:01;19.23;;;13.00;;
62933;SDS011;49038;47.600;19.242;2022-12-22T01:22:22;21.40;;;12.83;;
62933;SDS011;49038;47.600;19.242;2022-12-22T01:25:44;26.15;;;13.57;;
62933;SDS011;49038;47.600;19.242;2022-12-22T01:29:05;16.55;;;11.52;;
62933;SDS011;49038;47.600;19.242;2022-12-22T01:32:25;16.87;;;11.15;;
62933;SDS011;49038;47.600;19.242;2022-12-22T01:35:47;17.35;;;10.20;;
62933;SDS011;49038;47.600;19.242;2022-12-22T01:39:07;12.30;;;9.57;;
62933;SDS011;49038;47.600;19.242;2022-12-22T01:42:32;16.62;;;9.80;;
62933;SDS011;49038;47.600;19.242;2022-12-22T01:45:53;16.83;;;8.98;;
62933;SDS011;49038;47.600;19.242;2022-12-22T01:49:16;10.60;;;8.10;;
62933;SDS011;49038;47.600;19.242;2022-12-22T01:52:39;19.35;;;9.48;;
62933;SDS011;49038;47.600;19.242;2022-12-22T01:56:00;11.03;;;7.30;;
62933;SDS011;49038;47.600;19.242;2022-12-22T01:59:21;10.27;;;7.12;;
62933;SDS011;49038;47.600;19.242;2022-12-22T02:02:42;14.55;;;7.90;;
62933;SDS011;49038;47.600;19.242;2022-12-22T02:17:30;15.98;;;9.98;;
62933;SDS011;49038;47.600;19.242;2022-12-22T02:20:59;15.40;;;8.43;;
62933;SDS011;49038;47.600;19.242;2022-12-22T02:27:53;19.17;;;9.68;;
62933;SDS011;49038;47.600;19.242;2022-12-22T02:31:14;13.93;;;7.85;;
62933;SDS011;49038;47.600;19.242;2022-12-22T02:34:36;8.32;;;7.18;;
62933;SDS011;49038;47.600;19.242;2022-12-22T02:41:48;11.43;;;8.23;;
62933;SDS011;49038;47.600;19.242;2022-12-22T02:45:27;8.48;;;6.50;;
62933;SDS011;49038;47.600;19.242;2022-12-22T02:48:59;13.50;;;7.72;;
62933;SDS011;49038;47.600;19.242;2022-12-22T02:52:29;14.20;;;8.32;;
62933;SDS011;49038;47.600;19.242;2022-12-22T02:56:02;14.95;;;8.48;;
62933;SDS011;49038;47.600;19.242;2022-12-22T02:59:25;9.77;;;7.68;;
62933;SDS011;49038;47.600;19.242;2022-12-22T03:02:46;10.37;;;7.47;;
62933;SDS011;49038;47.600;19.242;2022-12-22T03:06:07;13.15;;;9.23;;
62933;SDS011;49038;47.600;19.242;2022-12-22T03:09:28;9.20;;;7.12;;
62933;SDS011;49038;47.600;19.242;2022-12-22T03:12:49;11.00;;;6.83;;
62933;SDS011;49038;47.600;19.242;2022-12-22T03:16:10;15.98;;;8.07;;
62933;SDS011;49038;47.600;19.242;2022-12-22T03:19:31;16.48;;;7.80;;
62933;SDS011;49038;47.600;19.242;2022-12-22T03:22:51;16.08;;;10.07;;
62933;SDS011;49038;47.600;19.242;2022-12-22T03:26:12;11.95;;;7.85;;
62933;SDS011;49038;47.600;19.242;2022-12-22T03:29:15;14.65;;;8.82;;
62933;SDS011;49038;47.600;19.242;2022-12-22T03:32:17;12.00;;;8.50;;
62933;SDS011;49038;47.600;19.242;2022-12-22T03:35:19;12.77;;;8.32;;
62933;SDS011;49038;47.600;19.242;2022-12-22T03:38:22;12.25;;;8.00;;
62933;SDS011;49038;47.600;19.242;2022-12-22T03:41:24;13.68;;;9.55;;
62933;SDS011;49038;47.600;19.242;2022-12-22T03:44:45;12.80;;;8.25;;
62933;SDS011;49038;47.600;19.242;2022-12-22T03:48:05;17.92;;;10.75;;
62933;SDS011;49038;47.600;19.242;2022-12-22T03:51:08;17.60;;;8.45;;
62933;SDS011;49038;47.600;19.242;2022-12-22T03:54:11;18.30;;;9.52;;
62933;SDS011;49038;47.600;19.242;2022-12-22T03:57:18;12.63;;;8.82;;
62933;SDS011;49038;47.600;19.242;2022-12-22T04:00:20;21.52;;;9.55;;
62933;SDS011;49038;47.600;19.242;2022-12-22T04:03:22;17.10;;;8.55;;
62933;SDS011;49038;47.600;19.242;2022-12-22T04:06:24;19.65;;;9.85;;
62933;SDS011;49038;47.600;19.242;2022-12-22T04:09:27;15.52;;;10.23;;
62933;SDS011;49038;47.600;19.242;2022-12-22T04:12:30;13.65;;;8.90;;
62933;SDS011;49038;47.600;19.242;2022-12-22T04:15:51;11.50;;;8.48;;
62933;SDS011;49038;47.600;19.242;2022-12-22T04:18:53;13.52;;;8.52;;
62933;SDS011;49038;47.600;19.242;2022-12-22T04:21:55;16.90;;;9.57;;
62933;SDS011;49038;47.600;19.242;2022-12-22T04:24:58;17.48;;;9.48;;
62933;SDS011;49038;47.600;19.242;2022-12-22T04:28:00;17.77;;;8.82;;
62933;SDS011;49038;47.600;19.242;2022-12-22T04:31:02;17.17;;;8.88;;
62933;SDS011;49038;47.600;19.242;2022-12-22T04:34:04;16.37;;;10.93;;
62933;SDS011;49038;47.600;19.242;2022-12-22T04:37:06;17.08;;;10.45;;
62933;SDS011;49038;47.600;19.242;2022-12-22T04:40:18;13.70;;;7.72;;
62933;SDS011;49038;47.600;19.242;2022-12-22T04:43:20;14.20;;;8.57;;
62933;SDS011;49038;47.600;19.242;2022-12-22T04:46:22;14.95;;;9.38;;
62933;SDS011;49038;47.600;19.242;2022-12-22T04:49:25;11.05;;;8.27;;
62933;SDS011;49038;47.600;19.242;2022-12-22T04:52:27;15.77;;;9.52;;
62933;SDS011;49038;47.600;19.242;2022-12-22T04:55:29;23.42;;;11.50;;
62933;SDS011;49038;47.600;19.242;2022-12-22T04:58:31;19.40;;;10.10;;
62933;SDS011;49038;47.600;19.242;2022-12-22T05:01:34;15.15;;;9.25;;
62933;SDS011;49038;47.600;19.242;2022-12-22T05:04:37;19.17;;;11.38;;
62933;SDS011;49038;47.600;19.242;2022-12-22T05:07:39;18.65;;;10.82;;
62933;SDS011;49038;47.600;19.242;2022-12-22T05:10:41;25.55;;;9.32;;
62933;SDS011;49038;47.600;19.242;2022-12-22T05:13:43;17.52;;;10.25;;
62933;SDS011;49038;47.600;19.242;2022-12-22T05:16:46;15.55;;;8.88;;
62933;SDS011;49038;47.600;19.242;2022-12-22T05:19:48;25.02;;;11.57;;
62933;SDS011;49038;47.600;19.242;2022-12-22T05:22:50;20.73;;;10.48;;
62933;SDS011;49038;47.600;19.242;2022-12-22T05:25:53;27.75;;;12.60;;
62933;SDS011;49038;47.600;19.242;2022-12-22T05:28:55;38.47;;;19.60;;
62933;SDS011;49038;47.600;19.242;2022-12-22T05:31:57;29.98;;;16.25;;
62933;SDS011;49038;47.600;19.242;2022-12-22T05:35:00;28.60;;;13.70;;
62933;SDS011;49038;47.600;19.242;2022-12-22T05:38:03;23.42;;;12.63;;
62933;SDS011;49038;47.600;19.242;2022-12-22T05:41:05;13.65;;;11.20;;
62933;SDS011;49038;47.600;19.242;2022-12-22T05:44:08;21.17;;;11.23;;
62933;SDS011;49038;47.600;19.242;2022-12-22T05:47:10;17.17;;;12.07;;
62933;SDS011;49038;47.600;19.242;2022-12-22T05:50:13;17.23;;;11.20;;
62933;SDS011;49038;47.600;19.242;2022-12-22T05:53:16;15.02;;;9.70;;
62933;SDS011;49038;47.600;19.242;2022-12-22T05:56:18;25.33;;;12.73;;
62933;SDS011;49038;47.600;19.242;2022-12-22T05:59:20;16.25;;;11.18;;
62933;SDS011;49038;47.600;19.242;2022-12-22T06:02:22;20.52;;;10.75;;
62933;SDS011;49038;47.600;19.242;2022-12-22T06:05:25;16.00;;;10.55;;
62933;SDS011;49038;47.600;19.242;2022-12-22T06:08:27;23.00;;;13.18;;
62933;SDS011;49038;47.600;19.242;2022-12-22T06:11:30;26.52;;;11.70;;
62933;SDS011;49038;47.600;19.242;2022-12-22T06:14:32;21.17;;;10.88;;
62933;SDS011;49038;47.600;19.242;2022-12-22T06:17:34;18.33;;;10.07;;
62933;SDS011;49038;47.600;19.242;2022-12-22T06:20:45;15.10;;;9.73;;
62933;SDS011;49038;47.600;19.242;2022-12-22T06:23:47;14.35;;;9.05;;
62933;SDS011;49038;47.600;19.242;2022-12-22T06:26:50;18.40;;;10.80;;
62933;SDS011;49038;47.600;19.242;2022-12-22T06:29:52;21.27;;;12.37;;
62933;SDS011;49038;47.600;19.242;2022-12-22T06:32:54;15.52;;;10.02;;
62933;SDS011;49038;47.600;19.242;2022-12-22T06:35:56;22.13;;;11.95;;
62933;SDS011;49038;47.600;19.242;2022-12-22T06:39:00;15.50;;;9.30;;
62933;SDS011;49038;47.600;19.242;2022-12-22T06:42:02;29.08;;;12.85;;
62933;SDS011;49038;47.600;19.242;2022-12-22T06:45:23;19.30;;;11.75;;
62933;SDS011;49038;47.600;19.242;2022-12-22T06:48:26;23.90;;;14.30;;
62933;SDS011;49038;47.600;19.242;2022-12-22T06:51:28;22.60;;;12.48;;
62933;SDS011;49038;47.600;19.242;2022-12-22T06:54:30;15.32;;;11.23;;
62933;SDS011;49038;47.600;19.242;2022-12-22T06:57:32;18.67;;;9.85;;
62933;SDS011;49038;47.600;19.242;2022-12-22T07:00:34;18.92;;;13.38;;
62933;SDS011;49038;47.600;19.242;2022-12-22T07:03:37;24.90;;;13.07;;
62933;SDS011;49038;47.600;19.242;2022-12-22T07:06:39;15.45;;;11.15;;
62933;SDS011;49038;47.600;19.242;2022-12-22T07:09:41;25.60;;;13.77;;
62933;SDS011;49038;47.600;19.242;2022-12-22T07:12:43;27.30;;;12.80;;
62933;SDS011;49038;47.600;19.242;2022-12-22T07:15:47;25.23;;;14.57;;
62933;SDS011;49038;47.600;19.242;2022-12-22T07:19:00;25.67;;;14.90;;
62933;SDS011;49038;47.600;19.242;2022-12-22T07:22:02;20.95;;;12.55;;
62933;SDS011;49038;47.600;19.242;2022-12-22T07:25:05;28.25;;;13.00;;
62933;SDS011;49038;47.600;19.242;2022-12-22T07:28:08;19.62;;;13.62;;
62933;SDS011;49038;47.600;19.242;2022-12-22T07:31:19;27.55;;;12.77;;
62933;SDS011;49038;47.600;19.242;2022-12-22T07:34:21;19.05;;;12.37;;
62933;SDS011;49038;47.600;19.242;2022-12-22T07:37:23;28.38;;;14.35;;
62933;SDS011;49038;47.600;19.242;2022-12-22T07:40:25;20.80;;;11.23;;
62933;SDS011;49038;47.600;19.242;2022-12-22T07:43:28;29.02;;;16.23;;
62933;SDS011;49038;47.600;19.242;2022-12-22T07:46:32;22.08;;;13.38;;
62933;SDS011;49038;47.600;19.242;2022-12-22T07:49:36;22.40;;;14.00;;
62933;SDS011;49038;47.600;19.242;2022-12-22T07:52:58;26.33;;;13.52;;
62933;SDS011;49038;47.600;19.242;2022-12-22T07:56:04;22.80;;;14.40;;
62933;SDS011;49038;47.600;19.242;2022-12-22T07:59:06;29.58;;;16.50;;
62933;SDS011;49038;47.600;19.242;2022-12-22T08:02:09;23.55;;;13.77;;
62933;SDS011;49038;47.600;19.242;2022-12-22T08:05:12;34.88;;;21.00;;
62933;SDS011;49038;47.600;19.242;2022-12-22T08:08:14;34.78;;;16.62;;
62933;SDS011;49038;47.600;19.242;2022-12-22T08:11:17;28.58;;;15.38;;
62933;SDS011;49038;47.600;19.242;2022-12-22T08:14:19;33.28;;;17.95;;
62933;SDS011;49038;47.600;19.242;2022-12-22T08:17:21;43.83;;;22.80;;
62933;SDS011;49038;47.600;19.242;2022-12-22T08:20:23;35.28;;;19.77;;
62933;SDS011;49038;47.600;19.242;2022-12-22T08:23:26;25.90;;;17.20;;
62933;SDS011;49038;47.600;19.242;2022-12-22T08:26:33;32.67;;;15.75;;
62933;SDS011;49038;47.600;19.242;2022-12-22T08:29:43;28.23;;;15.98;;
62933;SDS011;49038;47.600;19.242;2022-12-22T08:32:48;35.92;;;17.62;;
62933;SDS011;49038;47.600;19.242;2022-12-22T08:35:50;28.77;;;14.25;;
62933;SDS011;49038;47.600;19.242;2022-12-22T08:38:53;25.73;;;15.27;;
62933;SDS011;49038;47.600;19.242;2022-12-22T08:41:56;24.40;;;10.55;;
62933;SDS011;49038;47.600;19.242;2022-12-22T08:44:59;23.75;;;14.35;;
62933;SDS011;49038;47.600;19.242;2022-12-22T08:48:01;17.10;;;10.25;;
62933;SDS011;49038;47.600;19.242;2022-12-22T08:51:03;24.87;;;15.38;;
62933;SDS011;49038;47.600;19.242;2022-12-22T08:54:06;47.35;;;21.45;;
62933;SDS011;49038;47.600;19.242;2022-12-22T08:57:08;33.63;;;18.17;;
62933;SDS011;49038;47.600;19.242;2022-12-22T09:00:11;28.50;;;15.80;;
62933;SDS011;49038;47.600;19.242;2022-12-22T09:03:14;28.17;;;17.00;;
62933;SDS011;49038;47.600;19.242;2022-12-22T09:06:21;27.85;;;13.07;;
62933;SDS011;49038;47.600;19.242;2022-12-22T09:09:32;32.20;;;15.90;;
62933;SDS011;49038;47.600;19.242;2022-12-22T09:12:35;32.25;;;13.62;;
62933;SDS011;49038;47.600;19.242;2022-12-22T09:15:37;31.05;;;16.85;;
62933;SDS011;49038;47.600;19.242;2022-12-22T09:18:39;29.77;;;16.55;;
62933;SDS011;49038;47.600;19.242;2022-12-22T09:21:41;27.02;;;13.75;;
62933;SDS011;49038;47.600;19.242;2022-12-22T09:24:44;21.60;;;15.00;;
62933;SDS011;49038;47.600;19.242;2022-12-22T09:27:46;26.40;;;13.82;;
62933;SDS011;49038;47.600;19.242;2022-12-22T09:30:53;25.45;;;13.18;;
62933;SDS011;49038;47.600;19.242;2022-12-22T09:33:56;21.02;;;11.75;;
62933;SDS011;49038;47.600;19.242;2022-12-22T09:36:58;27.62;;;14.93;;
62933;SDS011;49038;47.600;19.242;2022-12-22T09:40:00;20.65;;;11.10;;
62933;SDS011;49038;47.600;19.242;2022-12-22T09:43:03;29.37;;;13.93;;
62933;SDS011;49038;47.600;19.242;2022-12-22T09:46:09;25.00;;;13.32;;
62933;SDS011;49038;47.600;19.242;2022-12-22T09:49:20;29.98;;;16.42;;
62933;SDS011;49038;47.600;19.242;2022-12-22T09:55:39;35.67;;;19.25;;
62933;SDS011;49038;47.600;19.242;2022-12-22T09:58:42;32.55;;;16.80;;
62933;SDS011;49038;47.600;19.242;2022-12-22T10:05:19;24.92;;;13.50;;
62933;SDS011;49038;47.600;19.242;2022-12-22T10:08:32;25.23;;;14.98;;
62933;SDS011;49038;47.600;19.242;2022-12-22T10:11:35;34.65;;;16.83;;
62933;SDS011;49038;47.600;19.242;2022-12-22T10:14:38;27.98;;;15.43;;
62933;SDS011;49038;47.600;19.242;2022-12-22T10:17:43;26.10;;;14.75;;
62933;SDS011;49038;47.600;19.242;2022-12-22T10:27:33;22.55;;;13.07;;
62933;SDS011;49038;47.600;19.242;2022-12-22T10:30:43;26.80;;;12.82;;
62933;SDS011;49038;47.600;19.242;2022-12-22T10:33:47;31.92;;;14.52;;
62933;SDS011;49038;47.600;19.242;2022-12-22T10:36:58;27.85;;;14.80;;
62933;SDS011;49038;47.600;19.242;2022-12-22T10:43:17;19.52;;;11.52;;
62933;SDS011;49038;47.600;19.242;2022-12-22T10:46:38;25.00;;;12.80;;
62933;SDS011;49038;47.600;19.242;2022-12-22T10:49:42;26.52;;;14.40;;
62933;SDS011;49038;47.600;19.242;2022-12-22T10:52:51;23.00;;;11.63;;
62933;SDS011;49038;47.600;19.242;2022-12-22T10:56:03;25.75;;;13.80;;
62933;SDS011;49038;47.600;19.242;2022-12-22T10:59:13;24.95;;;12.07;;
62933;SDS011;49038;47.600;19.242;2022-12-22T11:05:23;24.35;;;13.45;;
62933;SDS011;49038;47.600;19.242;2022-12-22T11:08:26;28.40;;;12.75;;
62933;SDS011;49038;47.600;19.242;2022-12-22T11:11:35;30.85;;;15.82;;
62933;SDS011;49038;47.600;19.242;2022-12-22T11:18:04;28.00;;;13.52;;
62933;SDS011;49038;47.600;19.242;2022-12-22T11:28:20;28.58;;;14.30;;
62933;SDS011;49038;47.600;19.242;2022-12-22T11:38:45;27.95;;;13.02;;
62933;SDS011;49038;47.600;19.242;2022-12-22T11:52:35;22.45;;;10.90;;
62933;SDS011;49038;47.600;19.242;2022-12-22T12:06:44;16.90;;;10.80;;
62933;SDS011;49038;47.600;19.242;2022-12-22T12:09:37;23.40;;;13.18;;
62933;SDS011;49038;47.600;19.242;2022-12-22T12:19:48;23.73;;;12.80;;
62933;SDS011;49038;47.600;19.242;2022-12-22T12:26:10;26.33;;;13.43;;
62933;SDS011;49038;47.600;19.242;2022-12-22T12:29:23;27.17;;;12.95;;
62933;SDS011;49038;47.600;19.242;2022-12-22T12:32:28;25.92;;;13.80;;
62933;SDS011;49038;47.600;19.242;2022-12-22T12:48:43;29.80;;;16.12;;
62933;SDS011;49038;47.600;19.242;2022-12-22T12:51:48;20.80;;;12.77;;
62933;SDS011;49038;47.600;19.242;2022-12-22T12:54:50;25.20;;;12.50;;
62933;SDS011;49038;47.600;19.242;2022-12-22T12:57:54;25.58;;;12.68;;
62933;SDS011;49038;47.600;19.242;2022-12-22T13:00:56;33.97;;;14.07;;
62933;SDS011;49038;47.600;19.242;2022-12-22T13:04:00;24.63;;;12.32;;
62933;SDS011;49038;47.600;19.242;2022-12-22T13:07:05;28.83;;;13.70;;
62933;SDS011;49038;47.600;19.242;2022-12-22T13:10:16;35.00;;;15.55;;
62933;SDS011;49038;47.600;19.242;2022-12-22T13:16:23;54.47;;;25.20;;
62933;SDS011;49038;47.600;19.242;2022-12-22T13:19:28;36.20;;;20.00;;
62933;SDS011;49038;47.600;19.242;2022-12-22T13:22:31;30.52;;;15.43;;
62933;SDS011;49038;47.600;19.242;2022-12-22T13:35:36;33.13;;;15.25;;
62933;SDS011;49038;47.600;19.242;2022-12-22T13:38:57;26.20;;;15.52;;
62933;SDS011;49038;47.600;19.242;2022-12-22T13:42:02;31.40;;;14.32;;
62933;SDS011;49038;47.600;19.242;2022-12-22T13:45:22;25.48;;;13.27;;
62933;SDS011;49038;47.600;19.242;2022-12-22T13:48:41;24.00;;;12.75;;
62933;SDS011;49038;47.600;19.242;2022-12-22T13:51:46;23.27;;;13.40;;
62933;SDS011;49038;47.600;19.242;2022-12-22T13:54:49;27.42;;;14.57;;
62933;SDS011;49038;47.600;19.242;2022-12-22T13:57:51;28.05;;;14.98;;
62933;SDS011;49038;47.600;19.242;2022-12-22T14:07:17;23.87;;;11.15;;
62933;SDS011;49038;47.600;19.242;2022-12-22T14:10:25;32.95;;;15.45;;
62933;SDS011;49038;47.600;19.242;2022-12-22T14:13:29;28.75;;;12.55;;
62933;SDS011;49038;47.600;19.242;2022-12-22T14:16:32;22.87;;;14.00;;
62933;SDS011;49038;47.600;19.242;2022-12-22T14:19:35;32.97;;;14.75;;
62933;SDS011;49038;47.600;19.242;2022-12-22T14:22:45;27.15;;;15.57;;
62933;SDS011;49038;47.600;19.242;2022-12-22T14:26:03;28.23;;;16.67;;
62933;SDS011;49038;47.600;19.242;2022-12-22T14:29:08;33.83;;;16.25;;
62933;SDS011;49038;47.600;19.242;2022-12-22T14:35:40;29.55;;;17.45;;
62933;SDS011;49038;47.600;19.242;2022-12-22T14:38:43;34.05;;;17.12;;
62933;SDS011;49038;47.600;19.242;2022-12-22T14:41:49;24.85;;;13.00;;
62933;SDS011;49038;47.600;19.242;2022-12-22T14:44:59;27.02;;;15.50;;
62933;SDS011;49038;47.600;19.242;2022-12-22T14:48:02;29.58;;;16.65;;
62933;SDS011;49038;47.600;19.242;2022-12-22T14:51:08;30.77;;;15.30;;
62933;SDS011;49038;47.600;19.242;2022-12-22T14:54:18;26.40;;;14.70;;
62933;SDS011;49038;47.600;19.242;2022-12-22T14:57:43;35.37;;;15.50;;
62933;SDS011;49038;47.600;19.242;2022-12-22T15:00:44;24.80;;;14.20;;
62933;SDS011;49038;47.600;19.242;2022-12-22T15:07:13;29.95;;;15.57;;
62933;SDS011;49038;47.600;19.242;2022-12-22T15:10:41;35.10;;;16.35;;
62933;SDS011;49038;47.600;19.242;2022-12-22T15:13:44;23.98;;;12.35;;
62933;SDS011;49038;47.600;19.242;2022-12-22T15:16:47;27.90;;;14.25;;
62933;SDS011;49038;47.600;19.242;2022-12-22T15:19:50;34.63;;;17.48;;
62933;SDS011;49038;47.600;19.242;2022-12-22T15:22:58;21.95;;;9.85;;
62933;SDS011;49038;47.600;19.242;2022-12-22T15:26:00;31.98;;;14.93;;
62933;SDS011;49038;47.600;19.242;2022-12-22T15:29:02;26.08;;;14.20;;
62933;SDS011;49038;47.600;19.242;2022-12-22T15:32:08;29.23;;;15.68;;
62933;SDS011;49038;47.600;19.242;2022-12-22T15:35:19;26.67;;;15.88;;
62933;SDS011;49038;47.600;19.242;2022-12-22T15:38:25;24.40;;;15.73;;
62933;SDS011;49038;47.600;19.242;2022-12-22T15:41:27;22.40;;;13.35;;
62933;SDS011;49038;47.600;19.242;2022-12-22T15:44:29;22.67;;;13.60;;
62933;SDS011;49038;47.600;19.242;2022-12-22T15:47:43;25.25;;;15.00;;
62933;SDS011;49038;47.600;19.242;2022-12-22T15:50:50;23.17;;;12.87;;
62933;SDS011;49038;47.600;19.242;2022-12-22T15:53:52;30.58;;;14.02;;
62933;SDS011;49038;47.600;19.242;2022-12-22T15:56:55;24.50;;;14.10;;
62933;SDS011;49038;47.600;19.242;2022-12-22T15:59:58;21.45;;;12.45;;
62933;SDS011;49038;47.600;19.242;2022-12-22T16:03:00;21.17;;;13.40;;
62933;SDS011;49038;47.600;19.242;2022-12-22T16:06:04;24.27;;;13.75;;
62933;SDS011;49038;47.600;19.242;2022-12-22T16:09:17;18.37;;;12.07;;
62933;SDS011;49038;47.600;19.242;2022-12-22T16:12:22;20.55;;;12.10;;
62933;SDS011;49038;47.600;19.242;2022-12-22T16:15:26;43.45;;;15.88;;
62933;SDS011;49038;47.600;19.242;2022-12-22T16:18:28;22.90;;;13.02;;
62933;SDS011;49038;47.600;19.242;2022-12-22T16:21:31;22.77;;;12.88;;
62933;SDS011;49038;47.600;19.242;2022-12-22T16:24:34;18.52;;;11.50;;
62933;SDS011;49038;47.600;19.242;2022-12-22T16:27:39;18.60;;;13.95;;
62933;SDS011;49038;47.600;19.242;2022-12-22T16:30:41;33.75;;;14.73;;
62933;SDS011;49038;47.600;19.242;2022-12-22T16:33:43;22.02;;;11.65;;
62933;SDS011;49038;47.600;19.242;2022-12-22T16:36:46;32.33;;;15.65;;
62933;SDS011;49038;47.600;19.242;2022-12-22T16:39:48;29.27;;;13.73;;
62933;SDS011;49038;47.600;19.242;2022-12-22T16:42:57;26.35;;;13.80;;
62933;SDS011;49038;47.600;19.242;2022-12-22T16:46:19;19.73;;;13.45;;
62933;SDS011;49038;47.600;19.242;2022-12-22T16:49:23;30.95;;;14.07;;
62933;SDS011;49038;47.600;19.242;2022-12-22T16:52:32;35.28;;;15.82;;
62933;SDS011;49038;47.600;19.242;2022-12-22T16:55:39;26.35;;;15.52;;
62933;SDS011;49038;47.600;19.242;2022-12-22T16:58:41;27.25;;;13.90;;
62933;SDS011;49038;47.600;19.242;2022-12-22T17:01:51;32.75;;;14.63;;
62933;SDS011;49038;47.600;19.242;2022-12-22T17:04:54;23.33;;;11.98;;
62933;SDS011;49038;47.600;19.242;2022-12-22T17:07:58;28.77;;;14.07;;
62933;SDS011;49038;47.600;19.242;2022-12-22T17:11:02;30.27;;;14.77;;
62933;SDS011;49038;47.600;19.242;2022-12-22T17:14:45;23.48;;;14.05;;
62933;SDS011;49038;47.600;19.242;2022-12-22T17:17:40;22.37;;;12.48;;
62933;SDS011;49038;47.600;19.242;2022-12-22T17:20:44;31.17;;;15.50;;
62933;SDS011;49038;47.600;19.242;2022-12-22T17:23:48;31.83;;;16.58;;
62933;SDS011;49038;47.600;19.242;2022-12-22T17:26:52;39.30;;;20.48;;
62933;SDS011;49038;47.600;19.242;2022-12-22T17:29:54;33.05;;;17.15;;
62933;SDS011;49038;47.600;19.242;2022-12-22T17:32:57;40.47;;;15.90;;
62933;SDS011;49038;47.600;19.242;2022-12-22T17:35:59;35.05;;;16.75;;
62933;SDS011;49038;47.600;19.242;2022-12-22T17:39:02;28.10;;;14.57;;
62933;SDS011;49038;47.600;19.242;2022-12-22T17:42:38;33.72;;;16.65;;
62933;SDS011;49038;47.600;19.242;2022-12-22T17:45:34;26.83;;;13.77;;
62933;SDS011;49038;47.600;19.242;2022-12-22T17:48:36;28.48;;;15.75;;
62933;SDS011;49038;47.600;19.242;2022-12-22T17:51:38;28.90;;;15.38;;
62933;SDS011;49038;47.600;19.242;2022-12-22T17:54:41;25.62;;;12.70;;
62933;SDS011;49038;47.600;19.242;2022-12-22T17:57:44;31.40;;;16.17;;
62933;SDS011;49038;47.600;19.242;2022-12-22T18:00:46;30.02;;;14.77;;
62933;SDS011;49038;47.600;19.242;2022-12-22T18:03:48;32.13;;;13.50;;
62933;SDS011;49038;47.600;19.242;2022-12-22T18:06:51;25.85;;;13.62;;
62933;SDS011;49038;47.600;19.242;2022-12-22T18:09:54;30.62;;;13.40;;
62933;SDS011;49038;47.600;19.242;2022-12-22T18:12:59;32.47;;;14.85;;
62933;SDS011;49038;47.600;19.242;2022-12-22T18:16:02;23.20;;;13.05;;
62933;SDS011;49038;47.600;19.242;2022-12-22T18:19:05;28.60;;;14.07;;
62933;SDS011;49038;47.600;19.242;2022-12-22T18:22:08;39.45;;;14.75;;
62933;SDS011;49038;47.600;19.242;2022-12-22T18:28:21;26.27;;;15.45;;
62933;SDS011;49038;47.600;19.242;2022-12-22T18:31:24;37.60;;;15.55;;
62933;SDS011;49038;47.600;19.242;2022-12-22T18:34:26;28.33;;;12.32;;
62933;SDS011;49038;47.600;19.242;2022-12-22T18:37:30;22.73;;;12.05;;
62933;SDS011;49038;47.600;19.242;2022-12-22T18:40:33;29.17;;;13.52;;
62933;SDS011;49038;47.600;19.242;2022-12-22T18:43:36;37.08;;;14.45;;
62933;SDS011;49038;47.600;19.242;2022-12-22T18:46:39;24.65;;;12.75;;
62933;SDS011;49038;47.600;19.242;2022-12-22T18:49:41;32.70;;;15.30;;
62933;SDS011;49038;47.600;19.242;2022-12-22T18:52:44;39.75;;;16.27;;
62933;SDS011;49038;47.600;19.242;2022-12-22T18:55:47;27.08;;;14.20;;
62933;SDS011;49038;47.600;19.242;2022-12-22T18:58:49;30.42;;;15.68;;
62933;SDS011;49038;47.600;19.242;2022-12-22T19:01:52;36.97;;;14.40;;
62933;SDS011;49038;47.600;19.242;2022-12-22T19:04:58;36.15;;;12.98;;
62933;SDS011;49038;47.600;19.242;2022-12-22T19:08:00;17.15;;;11.43;;
62933;SDS011;49038;47.600;19.242;2022-12-22T19:11:03;22.15;;;11.85;;
62933;SDS011;49038;47.600;19.242;2022-12-22T19:14:17;24.87;;;10.38;;
62933;SDS011;49038;47.600;19.242;2022-12-22T19:17:22;24.65;;;14.10;;
62933;SDS011;49038;47.600;19.242;2022-12-22T19:20:26;27.10;;;14.52;;
62933;SDS011;49038;47.600;19.242;2022-12-22T19:23:28;21.37;;;11.60;;
62933;SDS011;49038;47.600;19.242;2022-12-22T19:26:30;17.00;;;12.07;;
62933;SDS011;49038;47.600;19.242;2022-12-22T19:29:33;26.12;;;11.50;;
62933;SDS011;49038;47.600;19.242;2022-12-22T19:32:38;20.45;;;10.68;;
62933;SDS011;49038;47.600;19.242;2022-12-22T19:35:43;27.92;;;12.82;;
62933;SDS011;49038;47.600;19.242;2022-12-22T19:38:45;18.52;;;10.23;;
62933;SDS011;49038;47.600;19.242;2022-12-22T19:41:52;19.62;;;11.05;;
62933;SDS011;49038;47.600;19.242;2022-12-22T19:44:55;20.35;;;10.55;;
62933;SDS011;49038;47.600;19.242;2022-12-22T19:47:57;21.20;;;9.30;;
62933;SDS011;49038;47.600;19.242;2022-12-22T19:50:59;23.08;;;11.00;;
62933;SDS011;49038;47.600;19.242;2022-12-22T19:54:02;20.90;;;10.70;;
62933;SDS011;49038;47.600;19.242;2022-12-22T19:57:05;14.90;;;8.98;;
62933;SDS011;49038;47.600;19.242;2022-12-22T20:03:19;21.10;;;12.95;;
62933;SDS011;49038;47.600;19.242;2022-12-22T20:06:23;25.73;;;12.98;;
62933;SDS011;49038;47.600;19.242;2022-12-22T20:09:25;29.23;;;13.32;;
62933;SDS011;49038;47.600;19.242;2022-12-22T20:12:34;21.95;;;13.95;;
62933;SDS011;49038;47.600;19.242;2022-12-22T20:15:38;21.67;;;13.20;;
62933;SDS011;49038;47.600;19.242;2022-12-22T20:18:41;24.05;;;12.90;;